sensor_id;sensor_type;location;lat;lon;timestamp;P1;durP1;ratioP1;P2;durP2;ratioP2
82558;SDS011;72227;42.004;21.364;2023-12-04T00:01:25;13.23;;;7.85;;
82558;SDS011;72227;42.004;21.364;2023-12-04T00:03:51;12.90;;;7.85;;
82558;SDS011;72227;42.004;21.364;2023-12-04T00:06:18;17.33;;;10.98;;
82558;SDS011;72227;42.004;21.364;2023-12-04T00:08:44;16.00;;;9.48;;
82558;SDS011;72227;42.004;21.364;2023-12-04T00:11:10;13.95;;;7.20;;
82558;SDS011;72227;42.004;21.364;2023-12-04T00:13:36;9.40;;;6.32;;
82558;SDS011;72227;42.004;21.364;2023-12-04T00:16:04;13.85;;;9.27;;
82558;SDS011;72227;42.004;21.364;2023-12-04T00:18:31;15.57;;;9.05;;
82558;SDS011;72227;42.004;21.364;2023-12-04T00:20:57;14.75;;;9.20;;
82558;SDS011;72227;42.004;21.364;2023-12-04T00:23:23;13.75;;;9.07;;
82558;SDS011;72227;42.004;21.364;2023-12-04T00:25:49;13.38;;;9.45;;
82558;SDS011;72227;42.004;21.364;2023-12-04T00:28:15;14.43;;;8.45;;
82558;SDS011;72227;42.004;21.364;2023-12-04T00:30:41;13.18;;;8.73;;
82558;SDS011;72227;42.004;21.364;2023-12-04T00:33:07;14.05;;;9.70;;
82558;SDS011;72227;42.004;21.364;2023-12-04T00:35:33;17.38;;;9.02;;
82558;SDS011;72227;42.004;21.364;2023-12-04T00:37:59;21.08;;;10.45;;
82558;SDS011;72227;42.004;21.364;2023-12-04T00:40:25;16.02;;;9.00;;
82558;SDS011;72227;42.004;21.364;2023-12-04T00:42:51;19.60;;;10.13;;
82558;SDS011;72227;42.004;21.364;2023-12-04T00:45:17;14.77;;;9.57;;
82558;SDS011;72227;42.004;21.364;2023-12-04T00:47:43;13.80;;;7.78;;
82558;SDS011;72227;42.004;21.364;2023-12-04T00:50:10;12.90;;;8.55;;
82558;SDS011;72227;42.004;21.364;2023-12-04T00:52:37;13.40;;;8.10;;
82558;SDS011;72227;42.004;21.364;2023-12-04T00:55:03;13.18;;;8.07;;
82558;SDS011;72227;42.004;21.364;2023-12-04T00:57:29;14.15;;;7.72;;
82558;SDS011;72227;42.004;21.364;2023-12-04T00:59:55;14.80;;;8.57;;
82558;SDS011;72227;42.004;21.364;2023-12-04T01:02:21;16.00;;;8.40;;
82558;SDS011;72227;42.004;21.364;2023-12-04T01:04:47;16.60;;;7.25;;
82558;SDS011;72227;42.004;21.364;2023-12-04T01:07:13;10.75;;;6.70;;
82558;SDS011;72227;42.004;21.364;2023-12-04T01:09:39;16.63;;;8.02;;
82558;SDS011;72227;42.004;21.364;2023-12-04T01:12:05;16.55;;;8.55;;
82558;SDS011;72227;42.004;21.364;2023-12-04T01:14:31;16.10;;;7.80;;
82558;SDS011;72227;42.004;21.364;2023-12-04T01:16:58;17.38;;;8.60;;
82558;SDS011;72227;42.004;21.364;2023-12-04T01:19:24;24.02;;;8.25;;
82558;SDS011;72227;42.004;21.364;2023-12-04T01:21:50;14.00;;;7.40;;
82558;SDS011;72227;42.004;21.364;2023-12-04T01:24:16;14.93;;;7.35;;
82558;SDS011;72227;42.004;21.364;2023-12-04T01:26:42;16.08;;;7.10;;
82558;SDS011;72227;42.004;21.364;2023-12-04T01:29:08;16.45;;;7.05;;
82558;SDS011;72227;42.004;21.364;2023-12-04T01:31:34;15.15;;;7.93;;
82558;SDS011;72227;42.004;21.364;2023-12-04T01:34:00;22.15;;;7.95;;
82558;SDS011;72227;42.004;21.364;2023-12-04T01:36:26;16.75;;;6.60;;
82558;SDS011;72227;42.004;21.364;2023-12-04T01:38:52;12.27;;;7.45;;
82558;SDS011;72227;42.004;21.364;2023-12-04T01:41:18;15.27;;;8.25;;
82558;SDS011;72227;42.004;21.364;2023-12-04T01:43:45;14.88;;;7.82;;
82558;SDS011;72227;42.004;21.364;2023-12-04T01:46:11;14.27;;;7.95;;
82558;SDS011;72227;42.004;21.364;2023-12-04T01:48:37;16.80;;;8.05;;
82558;SDS011;72227;42.004;21.364;2023-12-04T01:51:05;11.02;;;6.13;;
82558;SDS011;72227;42.004;21.364;2023-12-04T01:53:32;9.70;;;6.20;;
82558;SDS011;72227;42.004;21.364;2023-12-04T01:55:58;11.98;;;7.22;;
82558;SDS011;72227;42.004;21.364;2023-12-04T01:58:24;12.52;;;7.45;;
82558;SDS011;72227;42.004;21.364;2023-12-04T02:00:51;11.30;;;8.73;;
82558;SDS011;72227;42.004;21.364;2023-12-04T02:03:17;12.10;;;6.97;;
82558;SDS011;72227;42.004;21.364;2023-12-04T02:05:47;12.70;;;8.48;;
82558;SDS011;72227;42.004;21.364;2023-12-04T02:08:13;11.05;;;7.88;;
82558;SDS011;72227;42.004;21.364;2023-12-04T02:10:39;11.60;;;7.20;;
82558;SDS011;72227;42.004;21.364;2023-12-04T02:13:05;11.65;;;7.03;;
82558;SDS011;72227;42.004;21.364;2023-12-04T02:15:31;11.02;;;6.45;;
82558;SDS011;72227;42.004;21.364;2023-12-04T02:17:58;11.02;;;7.05;;
82558;SDS011;72227;42.004;21.364;2023-12-04T02:20:34;11.02;;;7.22;;
82558;SDS011;72227;42.004;21.364;2023-12-04T02:23:03;12.82;;;7.88;;
82558;SDS011;72227;42.004;21.364;2023-12-04T02:25:29;12.35;;;6.28;;
82558;SDS011;72227;42.004;21.364;2023-12-04T02:27:56;11.95;;;7.47;;
82558;SDS011;72227;42.004;21.364;2023-12-04T02:30:22;10.85;;;6.72;;
82558;SDS011;72227;42.004;21.364;2023-12-04T02:32:49;13.50;;;7.30;;
82558;SDS011;72227;42.004;21.364;2023-12-04T02:35:16;11.20;;;6.43;;
82558;SDS011;72227;42.004;21.364;2023-12-04T02:37:45;10.15;;;6.80;;
82558;SDS011;72227;42.004;21.364;2023-12-04T02:40:11;12.13;;;6.28;;
82558;SDS011;72227;42.004;21.364;2023-12-04T02:42:38;10.43;;;7.03;;
82558;SDS011;72227;42.004;21.364;2023-12-04T02:45:04;9.45;;;5.90;;
82558;SDS011;72227;42.004;21.364;2023-12-04T02:47:30;11.98;;;6.68;;
82558;SDS011;72227;42.004;21.364;2023-12-04T02:49:57;11.05;;;7.97;;
82558;SDS011;72227;42.004;21.364;2023-12-04T02:52:23;10.52;;;7.78;;
82558;SDS011;72227;42.004;21.364;2023-12-04T02:54:49;11.75;;;6.95;;
82558;SDS011;72227;42.004;21.364;2023-12-04T02:57:15;10.18;;;6.47;;
82558;SDS011;72227;42.004;21.364;2023-12-04T02:59:41;9.93;;;5.75;;
82558;SDS011;72227;42.004;21.364;2023-12-04T03:02:07;10.73;;;6.90;;
82558;SDS011;72227;42.004;21.364;2023-12-04T03:04:33;10.18;;;5.68;;
82558;SDS011;72227;42.004;21.364;2023-12-04T03:07:00;11.68;;;5.72;;
82558;SDS011;72227;42.004;21.364;2023-12-04T03:09:26;11.20;;;7.00;;
82558;SDS011;72227;42.004;21.364;2023-12-04T03:11:52;11.55;;;7.05;;
82558;SDS011;72227;42.004;21.364;2023-12-04T03:14:18;9.40;;;5.55;;
82558;SDS011;72227;42.004;21.364;2023-12-04T03:16:44;9.82;;;7.80;;
82558;SDS011;72227;42.004;21.364;2023-12-04T03:19:10;9.93;;;7.15;;
82558;SDS011;72227;42.004;21.364;2023-12-04T03:21:36;10.35;;;6.63;;
82558;SDS011;72227;42.004;21.364;2023-12-04T03:24:02;10.73;;;6.47;;
82558;SDS011;72227;42.004;21.364;2023-12-04T03:26:28;10.43;;;6.65;;
82558;SDS011;72227;42.004;21.364;2023-12-04T03:28:55;12.57;;;6.68;;
82558;SDS011;72227;42.004;21.364;2023-12-04T03:31:21;10.90;;;6.65;;
82558;SDS011;72227;42.004;21.364;2023-12-04T03:33:47;13.45;;;7.65;;
82558;SDS011;72227;42.004;21.364;2023-12-04T03:36:13;11.77;;;7.22;;
82558;SDS011;72227;42.004;21.364;2023-12-04T03:38:39;11.48;;;6.30;;
82558;SDS011;72227;42.004;21.364;2023-12-04T03:41:12;9.80;;;6.38;;
82558;SDS011;72227;42.004;21.364;2023-12-04T03:43:39;10.68;;;6.60;;
82558;SDS011;72227;42.004;21.364;2023-12-04T03:46:05;10.88;;;8.18;;
82558;SDS011;72227;42.004;21.364;2023-12-04T03:48:31;9.23;;;6.07;;
82558;SDS011;72227;42.004;21.364;2023-12-04T03:50:57;11.63;;;7.28;;
82558;SDS011;72227;42.004;21.364;2023-12-04T03:53:24;12.20;;;7.57;;
82558;SDS011;72227;42.004;21.364;2023-12-04T03:55:50;13.57;;;7.60;;
82558;SDS011;72227;42.004;21.364;2023-12-04T03:58:16;11.57;;;6.20;;
82558;SDS011;72227;42.004;21.364;2023-12-04T04:00:42;10.70;;;7.10;;
82558;SDS011;72227;42.004;21.364;2023-12-04T04:03:11;11.35;;;8.00;;
82558;SDS011;72227;42.004;21.364;2023-12-04T04:05:37;12.15;;;8.07;;
82558;SDS011;72227;42.004;21.364;2023-12-04T04:08:03;12.30;;;8.05;;
82558;SDS011;72227;42.004;21.364;2023-12-04T04:10:32;11.80;;;7.43;;
82558;SDS011;72227;42.004;21.364;2023-12-04T04:12:58;11.90;;;7.07;;
82558;SDS011;72227;42.004;21.364;2023-12-04T04:15:25;10.55;;;6.78;;
82558;SDS011;72227;42.004;21.364;2023-12-04T04:17:51;11.70;;;7.28;;
82558;SDS011;72227;42.004;21.364;2023-12-04T04:20:17;11.88;;;7.55;;
82558;SDS011;72227;42.004;21.364;2023-12-04T04:22:43;12.95;;;7.75;;
82558;SDS011;72227;42.004;21.364;2023-12-04T04:25:11;11.30;;;8.02;;
82558;SDS011;72227;42.004;21.364;2023-12-04T04:27:37;12.25;;;7.60;;
82558;SDS011;72227;42.004;21.364;2023-12-04T04:30:04;11.48;;;6.88;;
82558;SDS011;72227;42.004;21.364;2023-12-04T04:32:30;11.65;;;7.22;;
82558;SDS011;72227;42.004;21.364;2023-12-04T04:34:56;10.68;;;7.55;;
82558;SDS011;72227;42.004;21.364;2023-12-04T04:37:22;12.73;;;7.07;;
82558;SDS011;72227;42.004;21.364;2023-12-04T04:39:48;15.10;;;7.85;;
82558;SDS011;72227;42.004;21.364;2023-12-04T04:42:14;12.65;;;7.53;;
82558;SDS011;72227;42.004;21.364;2023-12-04T04:44:40;12.45;;;9.07;;
82558;SDS011;72227;42.004;21.364;2023-12-04T04:47:07;12.30;;;8.60;;
82558;SDS011;72227;42.004;21.364;2023-12-04T04:49:33;13.38;;;10.02;;
82558;SDS011;72227;42.004;21.364;2023-12-04T04:51:59;12.40;;;7.97;;
82558;SDS011;72227;42.004;21.364;2023-12-04T04:54:25;12.93;;;8.85;;
82558;SDS011;72227;42.004;21.364;2023-12-04T04:56:51;12.98;;;8.18;;
82558;SDS011;72227;42.004;21.364;2023-12-04T04:59:17;14.07;;;9.02;;
82558;SDS011;72227;42.004;21.364;2023-12-04T05:01:43;11.50;;;8.63;;
82558;SDS011;72227;42.004;21.364;2023-12-04T05:04:09;13.82;;;9.25;;
82558;SDS011;72227;42.004;21.364;2023-12-04T05:06:35;12.43;;;7.82;;
82558;SDS011;72227;42.004;21.364;2023-12-04T05:09:01;12.88;;;8.25;;
82558;SDS011;72227;42.004;21.364;2023-12-04T05:11:27;9.95;;;7.05;;
82558;SDS011;72227;42.004;21.364;2023-12-04T05:13:53;13.82;;;10.25;;
82558;SDS011;72227;42.004;21.364;2023-12-04T05:16:19;13.70;;;7.63;;
82558;SDS011;72227;42.004;21.364;2023-12-04T05:18:46;15.18;;;9.30;;
82558;SDS011;72227;42.004;21.364;2023-12-04T05:21:12;14.48;;;8.98;;
82558;SDS011;72227;42.004;21.364;2023-12-04T05:23:38;9.18;;;5.97;;
82558;SDS011;72227;42.004;21.364;2023-12-04T05:26:05;14.10;;;8.60;;
82558;SDS011;72227;42.004;21.364;2023-12-04T05:28:31;13.00;;;9.60;;
82558;SDS011;72227;42.004;21.364;2023-12-04T05:30:57;14.20;;;10.77;;
82558;SDS011;72227;42.004;21.364;2023-12-04T05:33:23;16.35;;;11.05;;
82558;SDS011;72227;42.004;21.364;2023-12-04T05:35:49;13.82;;;9.40;;
82558;SDS011;72227;42.004;21.364;2023-12-04T05:38:19;14.02;;;9.20;;
82558;SDS011;72227;42.004;21.364;2023-12-04T05:40:45;13.07;;;9.10;;
82558;SDS011;72227;42.004;21.364;2023-12-04T05:43:11;16.10;;;9.98;;
82558;SDS011;72227;42.004;21.364;2023-12-04T05:45:38;10.70;;;7.22;;
82558;SDS011;72227;42.004;21.364;2023-12-04T05:48:05;12.70;;;8.20;;
82558;SDS011;72227;42.004;21.364;2023-12-04T05:50:31;14.25;;;8.75;;
82558;SDS011;72227;42.004;21.364;2023-12-04T05:52:57;14.07;;;8.90;;
82558;SDS011;72227;42.004;21.364;2023-12-04T05:55:23;13.50;;;8.32;;
82558;SDS011;72227;42.004;21.364;2023-12-04T05:57:50;11.00;;;8.18;;
82558;SDS011;72227;42.004;21.364;2023-12-04T06:00:16;13.40;;;10.50;;
82558;SDS011;72227;42.004;21.364;2023-12-04T06:02:42;13.35;;;8.80;;
82558;SDS011;72227;42.004;21.364;2023-12-04T06:05:09;12.00;;;8.57;;
82558;SDS011;72227;42.004;21.364;2023-12-04T06:07:35;12.68;;;7.97;;
82558;SDS011;72227;42.004;21.364;2023-12-04T06:10:02;15.40;;;9.38;;
82558;SDS011;72227;42.004;21.364;2023-12-04T06:12:29;13.70;;;8.30;;
82558;SDS011;72227;42.004;21.364;2023-12-04T06:14:55;15.98;;;9.48;;
82558;SDS011;72227;42.004;21.364;2023-12-04T06:17:23;12.95;;;8.48;;
82558;SDS011;72227;42.004;21.364;2023-12-04T06:19:49;14.10;;;8.15;;
82558;SDS011;72227;42.004;21.364;2023-12-04T06:22:15;15.90;;;9.73;;
82558;SDS011;72227;42.004;21.364;2023-12-04T06:24:43;17.55;;;10.68;;
82558;SDS011;72227;42.004;21.364;2023-12-04T06:27:10;16.65;;;10.18;;
82558;SDS011;72227;42.004;21.364;2023-12-04T06:29:38;17.65;;;9.82;;
82558;SDS011;72227;42.004;21.364;2023-12-04T06:32:04;16.77;;;11.95;;
82558;SDS011;72227;42.004;21.364;2023-12-04T06:34:30;17.30;;;9.55;;
82558;SDS011;72227;42.004;21.364;2023-12-04T06:36:56;20.15;;;11.07;;
82558;SDS011;72227;42.004;21.364;2023-12-04T06:39:22;16.75;;;11.40;;
82558;SDS011;72227;42.004;21.364;2023-12-04T06:41:49;17.23;;;11.93;;
82558;SDS011;72227;42.004;21.364;2023-12-04T06:44:16;18.58;;;11.48;;
82558;SDS011;72227;42.004;21.364;2023-12-04T06:46:42;18.75;;;12.13;;
82558;SDS011;72227;42.004;21.364;2023-12-04T06:49:11;16.88;;;10.70;;
82558;SDS011;72227;42.004;21.364;2023-12-04T06:51:39;19.60;;;12.20;;
82558;SDS011;72227;42.004;21.364;2023-12-04T06:54:05;21.25;;;12.10;;
82558;SDS011;72227;42.004;21.364;2023-12-04T06:56:31;16.90;;;10.65;;
82558;SDS011;72227;42.004;21.364;2023-12-04T06:58:57;18.15;;;12.00;;
82558;SDS011;72227;42.004;21.364;2023-12-04T07:01:23;18.55;;;10.90;;
82558;SDS011;72227;42.004;21.364;2023-12-04T07:03:49;19.30;;;11.52;;
82558;SDS011;72227;42.004;21.364;2023-12-04T07:06:15;20.60;;;12.13;;
82558;SDS011;72227;42.004;21.364;2023-12-04T07:08:41;19.73;;;11.00;;
82558;SDS011;72227;42.004;21.364;2023-12-04T07:11:07;24.85;;;13.38;;
82558;SDS011;72227;42.004;21.364;2023-12-04T07:13:34;33.90;;;21.50;;
82558;SDS011;72227;42.004;21.364;2023-12-04T07:16:00;18.23;;;11.43;;
82558;SDS011;72227;42.004;21.364;2023-12-04T07:18:26;16.90;;;10.82;;
82558;SDS011;72227;42.004;21.364;2023-12-04T07:20:52;20.42;;;12.55;;
82558;SDS011;72227;42.004;21.364;2023-12-04T07:23:18;19.58;;;11.95;;
82558;SDS011;72227;42.004;21.364;2023-12-04T07:25:44;20.80;;;11.65;;
82558;SDS011;72227;42.004;21.364;2023-12-04T07:28:11;17.42;;;11.40;;
82558;SDS011;72227;42.004;21.364;2023-12-04T07:30:39;16.88;;;9.93;;
82558;SDS011;72227;42.004;21.364;2023-12-04T07:33:06;15.32;;;9.00;;
82558;SDS011;72227;42.004;21.364;2023-12-04T07:35:32;18.50;;;11.23;;
82558;SDS011;72227;42.004;21.364;2023-12-04T07:37:58;16.50;;;10.75;;
82558;SDS011;72227;42.004;21.364;2023-12-04T07:40:24;21.70;;;11.10;;
82558;SDS011;72227;42.004;21.364;2023-12-04T07:42:51;19.85;;;12.10;;
82558;SDS011;72227;42.004;21.364;2023-12-04T07:45:17;17.55;;;10.68;;
82558;SDS011;72227;42.004;21.364;2023-12-04T07:47:43;15.77;;;10.02;;
82558;SDS011;72227;42.004;21.364;2023-12-04T07:50:09;19.80;;;11.13;;
82558;SDS011;72227;42.004;21.364;2023-12-04T07:52:35;20.15;;;11.75;;
82558;SDS011;72227;42.004;21.364;2023-12-04T07:55:01;20.50;;;12.27;;
82558;SDS011;72227;42.004;21.364;2023-12-04T07:57:27;17.98;;;11.52;;
82558;SDS011;72227;42.004;21.364;2023-12-04T07:59:53;18.55;;;11.07;;
82558;SDS011;72227;42.004;21.364;2023-12-04T08:02:19;19.23;;;11.68;;
82558;SDS011;72227;42.004;21.364;2023-12-04T08:04:45;13.38;;;8.90;;
82558;SDS011;72227;42.004;21.364;2023-12-04T08:07:12;15.40;;;8.73;;
82558;SDS011;72227;42.004;21.364;2023-12-04T08:09:39;14.48;;;10.13;;
82558;SDS011;72227;42.004;21.364;2023-12-04T08:12:05;17.45;;;10.05;;
82558;SDS011;72227;42.004;21.364;2023-12-04T08:14:31;18.42;;;9.43;;
82558;SDS011;72227;42.004;21.364;2023-12-04T08:16:57;16.75;;;12.05;;
82558;SDS011;72227;42.004;21.364;2023-12-04T08:19:23;15.50;;;8.90;;
82558;SDS011;72227;42.004;21.364;2023-12-04T08:21:50;15.10;;;9.27;;
82558;SDS011;72227;42.004;21.364;2023-12-04T08:24:16;16.13;;;8.95;;
82558;SDS011;72227;42.004;21.364;2023-12-04T08:26:44;15.48;;;9.10;;
82558;SDS011;72227;42.004;21.364;2023-12-04T08:29:10;18.88;;;10.48;;
82558;SDS011;72227;42.004;21.364;2023-12-04T08:31:36;13.88;;;7.85;;
82558;SDS011;72227;42.004;21.364;2023-12-04T08:34:02;17.17;;;9.75;;
82558;SDS011;72227;42.004;21.364;2023-12-04T08:36:29;17.85;;;10.35;;
82558;SDS011;72227;42.004;21.364;2023-12-04T08:38:55;15.98;;;9.48;;
82558;SDS011;72227;42.004;21.364;2023-12-04T08:41:21;14.82;;;9.65;;
82558;SDS011;72227;42.004;21.364;2023-12-04T08:43:47;18.20;;;9.07;;
82558;SDS011;72227;42.004;21.364;2023-12-04T08:46:13;14.60;;;8.90;;
82558;SDS011;72227;42.004;21.364;2023-12-04T08:48:42;16.30;;;9.07;;
82558;SDS011;72227;42.004;21.364;2023-12-04T08:51:14;14.00;;;8.55;;
82558;SDS011;72227;42.004;21.364;2023-12-04T08:53:41;17.77;;;10.70;;
82558;SDS011;72227;42.004;21.364;2023-12-04T08:56:07;16.60;;;9.38;;
82558;SDS011;72227;42.004;21.364;2023-12-04T08:58:33;18.95;;;11.15;;
82558;SDS011;72227;42.004;21.364;2023-12-04T09:00:59;22.92;;;14.30;;
82558;SDS011;72227;42.004;21.364;2023-12-04T09:03:25;17.33;;;11.85;;
82558;SDS011;72227;42.004;21.364;2023-12-04T09:05:51;18.20;;;11.13;;
82558;SDS011;72227;42.004;21.364;2023-12-04T09:08:18;15.85;;;11.20;;
82558;SDS011;72227;42.004;21.364;2023-12-04T09:10:44;17.08;;;10.43;;
82558;SDS011;72227;42.004;21.364;2023-12-04T09:13:12;16.55;;;9.60;;
82558;SDS011;72227;42.004;21.364;2023-12-04T09:15:39;14.32;;;9.25;;
82558;SDS011;72227;42.004;21.364;2023-12-04T09:18:05;17.48;;;9.63;;
82558;SDS011;72227;42.004;21.364;2023-12-04T09:20:31;15.52;;;9.00;;
82558;SDS011;72227;42.004;21.364;2023-12-04T09:22:57;13.68;;;8.65;;
82558;SDS011;72227;42.004;21.364;2023-12-04T09:25:23;20.77;;;12.18;;
82558;SDS011;72227;42.004;21.364;2023-12-04T09:27:50;17.63;;;10.65;;
82558;SDS011;72227;42.004;21.364;2023-12-04T09:30:16;16.48;;;11.35;;
82558;SDS011;72227;42.004;21.364;2023-12-04T09:32:42;15.43;;;10.02;;
82558;SDS011;72227;42.004;21.364;2023-12-04T09:35:08;16.13;;;10.73;;
82558;SDS011;72227;42.004;21.364;2023-12-04T09:37:35;18.00;;;11.55;;
82558;SDS011;72227;42.004;21.364;2023-12-04T09:40:01;17.10;;;10.40;;
82558;SDS011;72227;42.004;21.364;2023-12-04T09:42:27;17.15;;;11.40;;
82558;SDS011;72227;42.004;21.364;2023-12-04T09:44:55;16.77;;;10.93;;
82558;SDS011;72227;42.004;21.364;2023-12-04T09:47:21;18.58;;;11.55;;
82558;SDS011;72227;42.004;21.364;2023-12-04T09:49:48;19.00;;;11.80;;
82558;SDS011;72227;42.004;21.364;2023-12-04T09:52:18;16.67;;;11.07;;
82558;SDS011;72227;42.004;21.364;2023-12-04T09:54:44;15.63;;;9.68;;
82558;SDS011;72227;42.004;21.364;2023-12-04T09:57:10;17.65;;;8.90;;
82558;SDS011;72227;42.004;21.364;2023-12-04T09:59:38;15.52;;;11.32;;
82558;SDS011;72227;42.004;21.364;2023-12-04T10:02:04;17.92;;;10.13;;
82558;SDS011;72227;42.004;21.364;2023-12-04T10:04:31;16.63;;;12.05;;
82558;SDS011;72227;42.004;21.364;2023-12-04T10:07:03;18.35;;;11.05;;
82558;SDS011;72227;42.004;21.364;2023-12-04T10:09:29;16.85;;;11.18;;
82558;SDS011;72227;42.004;21.364;2023-12-04T10:11:56;17.40;;;9.95;;
82558;SDS011;72227;42.004;21.364;2023-12-04T10:14:23;18.65;;;9.43;;
82558;SDS011;72227;42.004;21.364;2023-12-04T10:16:50;17.23;;;10.07;;
82558;SDS011;72227;42.004;21.364;2023-12-04T10:19:21;15.27;;;9.50;;
82558;SDS011;72227;42.004;21.364;2023-12-04T10:21:55;14.27;;;9.05;;
82558;SDS011;72227;42.004;21.364;2023-12-04T10:27:00;14.38;;;8.80;;
82558;SDS011;72227;42.004;21.364;2023-12-04T10:29:27;13.57;;;8.13;;
82558;SDS011;72227;42.004;21.364;2023-12-04T10:31:55;13.98;;;10.07;;
82558;SDS011;72227;42.004;21.364;2023-12-04T10:34:21;16.10;;;10.07;;
82558;SDS011;72227;42.004;21.364;2023-12-04T10:36:51;13.38;;;9.15;;
82558;SDS011;72227;42.004;21.364;2023-12-04T10:39:17;14.73;;;8.52;;
82558;SDS011;72227;42.004;21.364;2023-12-04T10:41:43;14.00;;;9.05;;
82558;SDS011;72227;42.004;21.364;2023-12-04T10:44:09;16.52;;;9.77;;
82558;SDS011;72227;42.004;21.364;2023-12-04T10:46:36;12.50;;;6.18;;
82558;SDS011;72227;42.004;21.364;2023-12-04T10:49:03;12.70;;;7.68;;
82558;SDS011;72227;42.004;21.364;2023-12-04T10:51:30;11.60;;;7.03;;
82558;SDS011;72227;42.004;21.364;2023-12-04T10:53:56;11.73;;;7.93;;
82558;SDS011;72227;42.004;21.364;2023-12-04T10:56:27;11.80;;;5.38;;
82558;SDS011;72227;42.004;21.364;2023-12-04T10:58:56;11.90;;;7.78;;
82558;SDS011;72227;42.004;21.364;2023-12-04T11:01:23;13.32;;;8.05;;
82558;SDS011;72227;42.004;21.364;2023-12-04T11:03:54;11.80;;;6.88;;
82558;SDS011;72227;42.004;21.364;2023-12-04T11:06:21;11.50;;;8.45;;
82558;SDS011;72227;42.004;21.364;2023-12-04T11:08:48;11.25;;;7.28;;
82558;SDS011;72227;42.004;21.364;2023-12-04T11:11:23;13.13;;;8.80;;
82558;SDS011;72227;42.004;21.364;2023-12-04T11:13:52;11.98;;;7.18;;
82558;SDS011;72227;42.004;21.364;2023-12-04T11:16:43;10.90;;;7.00;;
82558;SDS011;72227;42.004;21.364;2023-12-04T11:21:52;15.75;;;9.57;;
82558;SDS011;72227;42.004;21.364;2023-12-04T11:24:18;14.35;;;9.20;;
82558;SDS011;72227;42.004;21.364;2023-12-04T11:26:46;12.38;;;8.32;;
82558;SDS011;72227;42.004;21.364;2023-12-04T11:29:13;13.35;;;7.72;;
82558;SDS011;72227;42.004;21.364;2023-12-04T11:31:40;13.55;;;7.40;;
82558;SDS011;72227;42.004;21.364;2023-12-04T11:34:07;12.55;;;6.22;;
82558;SDS011;72227;42.004;21.364;2023-12-04T11:36:34;16.95;;;10.95;;
82558;SDS011;72227;42.004;21.364;2023-12-04T11:39:00;13.32;;;8.30;;
82558;SDS011;72227;42.004;21.364;2023-12-04T11:41:28;13.40;;;10.15;;
82558;SDS011;72227;42.004;21.364;2023-12-04T11:43:56;12.65;;;7.50;;
82558;SDS011;72227;42.004;21.364;2023-12-04T11:46:23;11.23;;;7.22;;
82558;SDS011;72227;42.004;21.364;2023-12-04T11:48:50;15.27;;;10.57;;
82558;SDS011;72227;42.004;21.364;2023-12-04T11:54:01;13.75;;;8.82;;
82558;SDS011;72227;42.004;21.364;2023-12-04T11:56:30;13.25;;;7.82;;
82558;SDS011;72227;42.004;21.364;2023-12-04T11:59:05;13.02;;;8.48;;
82558;SDS011;72227;42.004;21.364;2023-12-04T12:01:38;16.25;;;10.75;;
82558;SDS011;72227;42.004;21.364;2023-12-04T12:04:05;14.48;;;8.73;;
82558;SDS011;72227;42.004;21.364;2023-12-04T12:06:31;14.27;;;8.02;;
82558;SDS011;72227;42.004;21.364;2023-12-04T12:08:57;11.32;;;7.38;;
82558;SDS011;72227;42.004;21.364;2023-12-04T12:11:24;13.13;;;7.78;;
82558;SDS011;72227;42.004;21.364;2023-12-04T12:13:53;13.25;;;9.02;;
82558;SDS011;72227;42.004;21.364;2023-12-04T12:16:19;13.68;;;9.02;;
82558;SDS011;72227;42.004;21.364;2023-12-04T12:18:45;14.07;;;8.63;;
82558;SDS011;72227;42.004;21.364;2023-12-04T12:21:12;15.85;;;10.20;;
82558;SDS011;72227;42.004;21.364;2023-12-04T12:23:38;15.38;;;8.65;;
82558;SDS011;72227;42.004;21.364;2023-12-04T12:26:04;11.13;;;7.60;;
82558;SDS011;72227;42.004;21.364;2023-12-04T12:28:30;13.70;;;8.00;;
82558;SDS011;72227;42.004;21.364;2023-12-04T12:30:56;18.15;;;8.10;;
82558;SDS011;72227;42.004;21.364;2023-12-04T12:33:28;12.85;;;7.13;;
82558;SDS011;72227;42.004;21.364;2023-12-04T12:35:54;12.20;;;7.10;;
82558;SDS011;72227;42.004;21.364;2023-12-04T12:38:21;13.10;;;7.50;;
82558;SDS011;72227;42.004;21.364;2023-12-04T12:40:47;15.95;;;7.30;;
82558;SDS011;72227;42.004;21.364;2023-12-04T12:43:13;11.93;;;8.07;;
82558;SDS011;72227;42.004;21.364;2023-12-04T12:45:42;11.77;;;7.68;;
82558;SDS011;72227;42.004;21.364;2023-12-04T12:48:15;11.93;;;8.70;;
82558;SDS011;72227;42.004;21.364;2023-12-04T12:50:42;10.48;;;6.38;;
82558;SDS011;72227;42.004;21.364;2023-12-04T12:53:08;12.60;;;6.97;;
82558;SDS011;72227;42.004;21.364;2023-12-04T12:55:43;11.90;;;7.55;;
82558;SDS011;72227;42.004;21.364;2023-12-04T12:58:10;11.32;;;7.63;;
82558;SDS011;72227;42.004;21.364;2023-12-04T13:00:39;9.52;;;6.13;;
82558;SDS011;72227;42.004;21.364;2023-12-04T13:03:17;12.55;;;7.70;;
82558;SDS011;72227;42.004;21.364;2023-12-04T13:05:43;28.05;;;16.00;;
82558;SDS011;72227;42.004;21.364;2023-12-04T13:08:10;14.05;;;9.95;;
82558;SDS011;72227;42.004;21.364;2023-12-04T13:10:40;12.05;;;7.10;;
82558;SDS011;72227;42.004;21.364;2023-12-04T13:13:10;13.52;;;8.05;;
82558;SDS011;72227;42.004;21.364;2023-12-04T13:15:36;12.75;;;7.75;;
82558;SDS011;72227;42.004;21.364;2023-12-04T13:18:02;12.75;;;7.18;;
82558;SDS011;72227;42.004;21.364;2023-12-04T13:20:28;11.40;;;7.82;;
82558;SDS011;72227;42.004;21.364;2023-12-04T13:22:55;12.75;;;7.32;;
82558;SDS011;72227;42.004;21.364;2023-12-04T13:25:21;10.20;;;6.90;;
82558;SDS011;72227;42.004;21.364;2023-12-04T13:27:47;11.23;;;8.10;;
82558;SDS011;72227;42.004;21.364;2023-12-04T13:30:14;13.23;;;7.75;;
82558;SDS011;72227;42.004;21.364;2023-12-04T13:32:40;10.23;;;7.25;;
82558;SDS011;72227;42.004;21.364;2023-12-04T13:35:06;10.07;;;6.80;;
82558;SDS011;72227;42.004;21.364;2023-12-04T13:37:35;12.18;;;8.38;;
82558;SDS011;72227;42.004;21.364;2023-12-04T13:40:03;12.00;;;8.57;;
82558;SDS011;72227;42.004;21.364;2023-12-04T13:42:34;12.75;;;8.73;;
82558;SDS011;72227;42.004;21.364;2023-12-04T13:45:19;9.85;;;7.05;;
82558;SDS011;72227;42.004;21.364;2023-12-04T13:47:47;11.60;;;7.40;;
82558;SDS011;72227;42.004;21.364;2023-12-04T13:50:13;12.10;;;8.40;;
82558;SDS011;72227;42.004;21.364;2023-12-04T13:52:40;13.48;;;7.88;;
82558;SDS011;72227;42.004;21.364;2023-12-04T13:55:08;14.77;;;9.68;;
82558;SDS011;72227;42.004;21.364;2023-12-04T13:57:44;17.85;;;10.32;;
82558;SDS011;72227;42.004;21.364;2023-12-04T14:00:34;14.13;;;9.25;;
82558;SDS011;72227;42.004;21.364;2023-12-04T14:03:01;12.77;;;9.38;;
82558;SDS011;72227;42.004;21.364;2023-12-04T14:05:32;14.80;;;9.68;;
82558;SDS011;72227;42.004;21.364;2023-12-04T14:07:59;15.48;;;10.68;;
82558;SDS011;72227;42.004;21.364;2023-12-04T14:10:25;11.25;;;8.50;;
82558;SDS011;72227;42.004;21.364;2023-12-04T14:12:51;12.68;;;8.38;;
82558;SDS011;72227;42.004;21.364;2023-12-04T14:15:18;12.55;;;7.60;;
82558;SDS011;72227;42.004;21.364;2023-12-04T14:17:45;12.57;;;7.55;;
82558;SDS011;72227;42.004;21.364;2023-12-04T14:20:14;16.35;;;9.70;;
82558;SDS011;72227;42.004;21.364;2023-12-04T14:22:43;18.70;;;10.05;;
82558;SDS011;72227;42.004;21.364;2023-12-04T14:25:11;12.70;;;7.32;;